Time;durP1;ratioP1;P1;durP2;ratioP2;P2;SDS_P1;SDS_P2;PMS_P1;PMS_P2;Temp;Humidity;BMP_temperature;BMP_pressure;BME280_temperature;BME280_humidity;BME280_pressure;Samples;Min_cycle;Max_cycle;Signal;HPM_P1;HPM_P2
2022/10/03 00:02:19;;;;;;;11.77;4.45;;;13.40;99.90;;;;;;4929166;29;20087;-89
2022/10/03 00:05:14;;;;;;;13.65;4.72;;;13.40;99.90;;;;;;4928193;29;20035;-88
2022/10/03 00:08:02;;;;;;;15.43;4.03;;;13.40;99.90;;;;;;4918045;29;20040;-89
2022/10/03 00:10:44;;;;;;;6.65;3.85;;;13.40;99.90;;;;;;4912197;29;20047;-89
2022/10/03 00:13:24;;;;;;;5.10;3.88;;;13.30;99.90;;;;;;4924924;29;20033;-90
2022/10/03 00:16:28;;;;;;;17.10;4.35;;;13.30;99.90;;;;;;4893534;29;20036;-89
2022/10/03 00:19:23;;;;;;;5.03;3.35;;;13.30;99.90;;;;;;4910434;29;20040;-89
2022/10/03 00:22:14;;;;;;;10.73;4.03;;;13.30;99.90;;;;;;4908851;29;20052;-90
2022/10/03 00:24:47;;;;;;;7.25;4.00;;;13.20;99.90;;;;;;4920525;29;20066;-90
2022/10/03 00:27:28;;;;;;;5.43;3.33;;;13.20;99.90;;;;;;4915440;29;20036;-89
2022/10/03 00:30:18;;;;;;;9.40;3.55;;;13.20;99.90;;;;;;4931185;29;20032;-89
2022/10/03 00:32:47;;;;;;;11.60;5.47;;;13.20;99.90;;;;;;4947352;29;20095;-90
2022/10/03 00:35:19;;;;;;;12.10;5.63;;;13.20;99.90;;;;;;4931388;29;20069;-89
2022/10/03 00:38:03;;;;;;;8.23;4.10;;;13.20;99.90;;;;;;4932543;29;20028;-90
2022/10/03 00:40:35;;;;;;;5.25;3.58;;;13.20;99.90;;;;;;4931047;29;20040;-89
2022/10/03 00:43:22;;;;;;;6.25;2.97;;;13.20;99.90;;;;;;4931488;29;20032;-89
2022/10/03 00:46:00;;;;;;;9.00;4.72;;;13.10;99.90;;;;;;4940454;29;20032;-89
2022/10/03 00:49:00;;;;;;;14.85;5.15;;;13.10;99.90;;;;;;4931201;29;20032;-90
2022/10/03 00:51:57;;;;;;;4.80;2.58;;;13.10;99.90;;;;;;4930831;29;20032;-90
2022/10/03 00:54:43;;;;;;;12.85;4.25;;;13.00;99.90;;;;;;4930989;29;20040;-89
2022/10/03 00:57:41;;;;;;;7.22;4.13;;;13.10;99.90;;;;;;4914618;29;20054;-90
2022/10/03 01:00:16;;;;;;;7.18;3.22;;;13.00;99.90;;;;;;4914818;29;20035;-89
2022/10/03 01:02:51;;;;;;;11.45;4.57;;;13.00;99.90;;;;;;4930780;29;20032;-89
2022/10/03 01:05:44;;;;;;;8.95;3.67;;;13.00;99.90;;;;;;4932051;29;20028;-90
2022/10/03 01:08:29;;;;;;;8.52;4.22;;;13.00;99.90;;;;;;4930769;29;20024;-89
2022/10/03 01:11:16;;;;;;;8.57;4.20;;;13.00;99.90;;;;;;4930713;29;20039;-90
2022/10/03 01:14:36;;;;;;;9.52;4.22;;;13.00;99.90;;;;;;4914847;29;20040;-90
2022/10/03 01:17:16;;;;;;;9.85;4.68;;;13.00;99.90;;;;;;4919996;29;20048;-89
2022/10/03 01:20:08;;;;;;;10.27;4.55;;;12.90;99.90;;;;;;4930779;29;20032;-89
2022/10/03 01:22:58;;;;;;;10.00;4.13;;;12.90;99.90;;;;;;4931756;29;20044;-90
2022/10/03 01:25:24;;;;;;;13.77;3.67;;;12.90;99.90;;;;;;4930735;29;20028;-89
2022/10/03 01:31:07;;;;;;;6.75;4.47;;;12.90;99.90;;;;;;4917076;29;20032;-89
2022/10/03 01:33:36;;;;;;;5.45;3.35;;;12.90;99.90;;;;;;4930159;29;20039;-90
2022/10/03 01:36:27;;;;;;;7.38;3.00;;;12.90;99.90;;;;;;4931291;29;20040;-89
2022/10/03 01:39:19;;;;;;;5.32;2.92;;;12.90;99.90;;;;;;4930303;29;20035;-90
2022/10/03 01:42:05;;;;;;;6.80;3.78;;;12.90;99.90;;;;;;4928974;29;20048;-89
2022/10/03 01:45:06;;;;;;;11.48;4.28;;;12.80;99.90;;;;;;4930034;29;20035;-89
2022/10/03 01:47:37;;;;;;;6.90;3.28;;;12.80;99.90;;;;;;4912048;29;20044;-90
2022/10/03 01:50:25;;;;;;;8.15;3.67;;;12.80;99.90;;;;;;4913822;29;20060;-89
2022/10/03 01:53:00;;;;;;;6.60;3.17;;;12.80;99.90;;;;;;4929978;29;20038;-89
2022/10/03 01:55:54;;;;;;;7.32;3.88;;;12.70;99.90;;;;;;4931357;29;20039;-89
2022/10/03 01:58:55;;;;;;;5.93;4.63;;;12.70;99.90;;;;;;4929965;29;20385;-88
2022/10/03 02:01:37;;;;;;;8.18;5.47;;;12.70;99.90;;;;;;4929834;29;20047;-89
2022/10/03 02:04:09;;;;;;;6.95;3.65;;;12.70;99.90;;;;;;4929419;29;20102;-89
2022/10/03 02:06:44;;;;;;;15.30;5.63;;;12.70;99.90;;;;;;4929704;29;20063;-90
2022/10/03 02:09:47;;;;;;;9.43;3.28;;;12.70;99.90;;;;;;4929770;29;20036;-89
2022/10/03 02:12:49;;;;;;;11.27;5.25;;;12.60;99.90;;;;;;4913955;29;20032;-89
2022/10/03 02:15:23;;;;;;;10.48;5.85;;;12.60;99.90;;;;;;4928392;29;20434;-89
2022/10/03 02:18:17;;;;;;;7.28;3.70;;;12.60;99.90;;;;;;4929493;29;20051;-89
2022/10/03 02:21:09;;;;;;;14.38;4.05;;;12.60;99.90;;;;;;4911559;29;20052;-89
2022/10/03 02:23:35;;;;;;;4.13;2.80;;;12.60;99.90;;;;;;4926286;29;20060;-89
2022/10/03 02:26:25;;;;;;;12.63;4.88;;;12.60;99.90;;;;;;4910557;29;20076;-89
2022/10/03 02:29:21;;;;;;;12.05;4.18;;;12.60;99.90;;;;;;4910320;29;20039;-89
2022/10/03 02:32:32;;;;;;;12.63;3.55;;;12.60;99.90;;;;;;4894839;29;20048;-88
2022/10/03 02:35:26;;;;;;;8.02;4.38;;;12.50;99.90;;;;;;4924684;29;20043;-90
2022/10/03 02:38:04;;;;;;;8.40;3.72;;;12.50;99.90;;;;;;4929150;29;20043;-89
2022/10/03 02:40:56;;;;;;;12.20;4.88;;;12.50;99.90;;;;;;4913220;29;20040;-89
2022/10/03 02:43:55;;;;;;;3.28;2.55;;;12.50;99.90;;;;;;4928875;29;20044;-89
2022/10/03 02:46:45;;;;;;;10.57;3.38;;;12.50;99.90;;;;;;4912782;29;20060;-89
2022/10/03 02:49:49;;;;;;;4.85;3.42;;;12.40;99.90;;;;;;4928664;29;20035;-89
2022/10/03 02:52:47;;;;;;;8.88;3.75;;;12.40;99.90;;;;;;4930033;29;20036;-89
2022/10/03 02:55:50;;;;;;;6.50;4.97;;;12.40;99.90;;;;;;4928862;29;20036;-90
2022/10/03 02:58:47;;;;;;;7.32;4.00;;;12.40;99.90;;;;;;4912925;29;20032;-89
2022/10/03 03:01:34;;;;;;;12.30;4.15;;;12.40;99.90;;;;;;4929019;29;20036;-89
2022/10/03 03:04:12;;;;;;;8.07;4.10;;;12.40;99.90;;;;;;4928864;29;20039;-89
2022/10/03 03:07:13;;;;;;;6.03;3.38;;;12.40;99.90;;;;;;4912489;29;20054;-89
2022/10/03 03:10:11;;;;;;;6.80;3.90;;;12.40;99.90;;;;;;4912911;29;20040;-89
2022/10/03 03:13:04;;;;;;;8.60;3.80;;;12.30;99.90;;;;;;4921730;29;20044;-89
2022/10/03 03:16:01;;;;;;;6.18;3.92;;;12.40;99.90;;;;;;4928569;29;20036;-90
2022/10/03 03:18:34;;;;;;;10.07;4.03;;;12.30;99.90;;;;;;4928493;29;20036;-89
2022/10/03 03:21:05;;;;;;;10.55;3.75;;;12.30;99.90;;;;;;4912211;29;20052;-89
2022/10/03 03:23:49;;;;;;;8.38;4.78;;;12.30;99.90;;;;;;4912774;29;20024;-89
2022/10/03 03:26:21;;;;;;;9.23;4.13;;;12.30;99.90;;;;;;4927665;29;20032;-88
2022/10/03 03:29:24;;;;;;;7.03;3.78;;;12.30;99.90;;;;;;4912481;29;20024;-90
2022/10/03 03:32:09;;;;;;;10.15;4.68;;;12.30;99.90;;;;;;4928482;29;20107;-90
2022/10/03 03:34:50;;;;;;;7.53;5.30;;;12.30;99.90;;;;;;4929513;29;20047;-89
2022/10/03 03:37:33;;;;;;;7.25;3.42;;;12.20;99.90;;;;;;4928443;29;20032;-90
2022/10/03 03:40:31;;;;;;;6.80;4.22;;;12.20;99.90;;;;;;4928388;29;20108;-89
2022/10/03 03:43:18;;;;;;;10.18;4.55;;;12.20;99.90;;;;;;4928127;29;20032;-90
2022/10/03 03:46:10;;;;;;;8.15;4.80;;;12.20;99.90;;;;;;4929480;29;20076;-88
2022/10/03 03:49:13;;;;;;;10.85;4.43;;;12.20;99.90;;;;;;4921308;29;20040;-88
2022/10/03 03:51:47;;;;;;;12.23;4.85;;;12.20;99.90;;;;;;4912414;29;20083;-90
2022/10/03 03:54:43;;;;;;;7.63;5.20;;;12.20;99.90;;;;;;4928149;29;20059;-89
2022/10/03 03:57:34;;;;;;;5.30;4.00;;;12.10;99.90;;;;;;4928557;29;20060;-89
2022/10/03 04:00:13;;;;;;;16.60;5.47;;;12.10;99.90;;;;;;4928744;29;20045;-89
2022/10/03 04:02:46;;;;;;;6.18;4.72;;;12.10;99.90;;;;;;4913268;29;20028;-90
2022/10/03 04:05:50;;;;;;;6.90;4.97;;;12.10;99.90;;;;;;4913098;29;20032;-90
2022/10/03 04:08:25;;;;;;;10.85;4.93;;;12.10;99.90;;;;;;4913133;29;20065;-90
2022/10/03 04:11:05;;;;;;;6.85;5.10;;;12.10;99.90;;;;;;4912752;29;20060;-89
2022/10/03 04:13:46;;;;;;;;;;;12.10;99.90;;;;;;4925477;29;20035;-89
2022/10/03 04:18:56;;;;;;;8.38;4.80;;;12.10;99.90;;;;;;4915379;29;19911;-88
2022/10/03 04:19:36;;;;;;;7.25;4.70;;;12.10;99.90;;;;;;4931724;29;20051;-89
2022/10/03 04:22:23;;;;;;;8.32;4.50;;;12.10;99.90;;;;;;4930631;29;20048;-90
2022/10/03 04:25:07;;;;;;;4.90;4.47;;;12.10;99.90;;;;;;4915030;29;20078;-90
2022/10/03 04:27:52;;;;;;;7.65;4.70;;;12.00;99.90;;;;;;4912797;29;20033;-90
2022/10/03 04:30:25;;;;;;;5.32;4.40;;;12.00;99.90;;;;;;4909568;29;20035;-88
2022/10/03 04:33:05;;;;;;;6.03;4.80;;;12.00;99.90;;;;;;4932740;29;20028;-89
2022/10/03 04:36:08;;;;;;;15.93;5.43;;;12.00;99.90;;;;;;4929469;29;20083;-89
2022/10/03 04:38:43;;;;;;;8.38;4.80;;;12.00;99.90;;;;;;4932659;29;20036;-89
2022/10/03 04:41:30;;;;;;;6.35;4.28;;;12.00;99.90;;;;;;4931397;29;20103;-89
2022/10/03 04:44:10;;;;;;;11.32;7.15;;;12.00;99.90;;;;;;4923167;29;20036;-87
2022/10/03 04:46:57;;;;;;;7.25;4.47;;;12.00;99.90;;;;;;4939156;29;20042;-87
2022/10/03 04:49:40;;;;;;;5.32;4.72;;;12.00;99.90;;;;;;4905979;29;20021;-86
2022/10/03 04:52:36;;;;;;;13.02;5.47;;;11.90;99.90;;;;;;4927171;29;20042;-87
2022/10/03 04:55:34;;;;;;;13.15;6.20;;;11.90;99.90;;;;;;4924722;29;20028;-87
2022/10/03 04:58:03;;;;;;;10.05;5.38;;;11.90;99.90;;;;;;4909978;29;20087;-87
2022/10/03 05:00:58;;;;;;;6.30;5.43;;;11.90;99.90;;;;;;4929706;29;20060;-86
2022/10/03 05:03:42;;;;;;;14.45;7.60;;;11.90;99.90;;;;;;4923227;29;20368;-87
2022/10/03 05:06:47;;;;;;;8.27;4.78;;;11.90;99.90;;;;;;4912150;29;20033;-87
2022/10/03 05:09:37;;;;;;;14.18;5.32;;;11.90;99.90;;;;;;4927013;29;20032;-87
2022/10/03 05:12:28;;;;;;;8.85;5.30;;;11.90;99.90;;;;;;4930436;29;20043;-87
2022/10/03 05:14:57;;;;;;;13.00;6.93;;;11.90;99.90;;;;;;4937190;29;20040;-87
2022/10/03 05:17:41;;;;;;;8.95;5.85;;;11.90;99.90;;;;;;4929940;29;20051;-87
2022/10/03 05:20:14;;;;;;;11.93;5.57;;;11.90;99.90;;;;;;4918681;29;20046;-87
2022/10/03 05:23:10;;;;;;;11.85;5.32;;;11.90;99.90;;;;;;4930207;29;20052;-87
2022/10/03 05:25:52;;;;;;;7.25;5.78;;;11.80;99.90;;;;;;4931324;29;20032;-87
2022/10/03 05:28:34;;;;;;;10.38;5.60;;;11.70;99.90;;;;;;4945099;29;20032;-89
2022/10/03 05:31:45;;;;;;;9.43;5.63;;;11.60;99.90;;;;;;4923670;29;20040;-89
2022/10/03 05:34:19;;;;;;;7.93;5.50;;;11.60;99.90;;;;;;4906924;29;20040;-87
2022/10/03 05:37:16;;;;;;;18.38;8.00;;;11.60;99.90;;;;;;4908170;29;20040;-86
2022/10/03 05:40:10;;;;;;;10.05;6.68;;;11.60;99.90;;;;;;4912378;29;20033;-87
2022/10/03 05:42:51;;;;;;;6.97;6.28;;;11.50;99.90;;;;;;4917609;29;20032;-86
2022/10/03 05:45:51;;;;;;;12.02;7.22;;;11.50;99.90;;;;;;4929828;29;20478;-86
2022/10/03 05:48:43;;;;;;;15.32;6.13;;;11.50;99.90;;;;;;4929984;29;20131;-87
2022/10/03 05:51:38;;;;;;;8.93;5.95;;;11.50;99.90;;;;;;4931246;29;20394;-88
2022/10/03 05:54:16;;;;;;;8.93;5.43;;;11.60;99.90;;;;;;4931172;29;20071;-88
2022/10/03 05:57:16;;;;;;;10.88;6.13;;;11.60;99.90;;;;;;4914135;29;20087;-87
2022/10/03 06:00:21;;;;;;;9.43;7.00;;;11.70;99.90;;;;;;4929705;29;20032;-87
2022/10/03 06:02:58;;;;;;;5.57;5.03;;;11.70;99.90;;;;;;4920969;29;20056;-86
2022/10/03 06:05:56;;;;;;;8.45;6.05;;;11.70;99.90;;;;;;4929881;29;20036;-87
2022/10/03 06:08:41;;;;;;;8.95;6.35;;;11.60;99.90;;;;;;4931411;29;20109;-87
2022/10/03 06:11:40;;;;;;;17.27;7.05;;;11.70;99.90;;;;;;4931072;29;20063;-87
2022/10/03 06:14:18;;;;;;;13.95;7.13;;;11.70;99.90;;;;;;4909236;29;20064;-87
2022/10/03 06:17:11;;;;;;;9.93;6.30;;;11.70;99.90;;;;;;4929201;29;20139;-86
2022/10/03 06:19:40;;;;;;;8.43;6.20;;;11.70;99.90;;;;;;4929302;29;20028;-86
2022/10/03 06:22:21;;;;;;;13.38;8.30;;;11.70;99.90;;;;;;4928534;29;20103;-87
2022/10/03 06:25:09;;;;;;;12.07;7.57;;;11.70;99.90;;;;;;4929399;29;20032;-87
2022/10/03 06:28:08;;;;;;;10.77;7.22;;;11.80;99.90;;;;;;4913638;29;20036;-87
2022/10/03 06:30:52;;;;;;;10.73;7.22;;;11.80;99.90;;;;;;4930330;29;20030;-87
2022/10/03 06:33:56;;;;;;;10.45;6.63;;;11.80;99.90;;;;;;4929559;29;20505;-86
2022/10/03 06:36:43;;;;;;;13.38;8.23;;;11.70;99.90;;;;;;4931333;29;20057;-87
2022/10/03 06:39:18;;;;;;;15.15;9.15;;;11.70;99.90;;;;;;4929438;29;20494;-87
2022/10/03 06:42:04;;;;;;;14.40;10.05;;;11.80;99.90;;;;;;4913318;29;20036;-86
2022/10/03 06:44:54;;;;;;;14.55;9.13;;;11.80;99.90;;;;;;4930127;29;20028;-87
2022/10/03 06:47:23;;;;;;;14.95;9.73;;;11.80;99.90;;;;;;4926105;29;20037;-87
2022/10/03 06:50:08;;;;;;;12.60;7.72;;;11.80;99.90;;;;;;4910227;29;20025;-87
2022/10/03 06:53:06;;;;;;;20.67;8.40;;;11.80;99.90;;;;;;4910114;29;20104;-87
2022/10/03 06:55:47;;;;;;;15.45;9.30;;;11.80;99.90;;;;;;4922396;29;20101;-87
2022/10/03 06:58:39;;;;;;;15.20;7.57;;;11.80;99.90;;;;;;4894200;29;20040;-87
2022/10/03 07:01:11;;;;;;;9.77;7.95;;;11.90;99.90;;;;;;4923691;29;20032;-87
2022/10/03 07:03:59;;;;;;;10.85;7.88;;;11.80;99.90;;;;;;4928503;29;20060;-87
2022/10/03 07:06:47;;;;;;;18.90;7.22;;;11.90;99.90;;;;;;4928698;29;20024;-88
2022/10/03 07:09:52;;;;;;;16.02;7.88;;;11.90;99.90;;;;;;4928649;29;20036;-87
2022/10/03 07:12:37;;;;;;;8.18;7.32;;;11.90;99.90;;;;;;4928466;29;20039;-87
2022/10/03 07:15:25;;;;;;;11.93;9.50;;;11.90;99.90;;;;;;4928538;29;20032;-87
2022/10/03 07:18:26;;;;;;;12.68;9.15;;;11.90;99.90;;;;;;4929808;29;20044;-87
2022/10/03 07:21:21;;;;;;;9.43;6.82;;;12.00;99.90;;;;;;4944382;29;20052;-88
2022/10/03 07:23:56;;;;;;;14.50;7.43;;;12.00;99.90;;;;;;4929567;29;20051;-87
2022/10/03 07:26:38;;;;;;;11.90;8.20;;;12.00;99.90;;;;;;4928596;29;20064;-88
2022/10/03 07:29:28;;;;;;;8.40;7.60;;;12.00;99.90;;;;;;4928174;29;20032;-87
2022/10/03 07:32:25;;;;;;;10.18;8.57;;;12.00;99.90;;;;;;4928429;29;20059;-86
2022/10/03 07:38:56;;;;;;;11.35;7.78;;;12.10;99.90;;;;;;4927992;29;20398;-87
2022/10/03 07:38:59;;;;;;;10.38;7.20;;;12.00;99.90;;;;;;4928244;29;20032;-87
2022/10/03 07:41:37;;;;;;;12.60;8.75;;;12.00;99.90;;;;;;4928129;29;20040;-87
2022/10/03 07:44:30;;;;;;;18.38;8.00;;;12.10;99.90;;;;;;4928241;29;20040;-87
2022/10/03 07:47:03;;;;;;;9.98;8.32;;;12.10;99.90;;;;;;4912527;29;20064;-87
2022/10/03 07:49:56;;;;;;;15.68;8.95;;;12.10;99.90;;;;;;4929148;29;20036;-87
2022/10/03 07:52:44;;;;;;;17.30;8.63;;;12.10;99.90;;;;;;4912192;29;20044;-87
2022/10/03 07:55:34;;;;;;;10.65;8.38;;;12.00;99.90;;;;;;4929396;29;20032;-87
2022/10/03 07:58:17;;;;;;;14.30;8.88;;;12.10;99.90;;;;;;4928223;29;20036;-87
2022/10/03 08:00:58;;;;;;;13.73;9.35;;;12.10;99.90;;;;;;4928027;29;20099;-88
2022/10/03 08:03:49;;;;;;;10.68;7.38;;;12.10;99.90;;;;;;4912286;29;20043;-87
2022/10/03 08:07:09;;;;;;;9.43;7.30;;;12.10;99.90;;;;;;4929285;29;20028;-87
2022/10/03 08:10:07;;;;;;;15.15;8.50;;;12.20;99.90;;;;;;4889388;29;20029;-87
2022/10/03 08:13:06;;;;;;;9.13;8.07;;;12.20;99.90;;;;;;4909052;29;20043;-87
2022/10/03 08:15:55;;;;;;;15.88;8.63;;;12.20;99.90;;;;;;4908978;29;20060;-88
2022/10/03 08:18:26;;;;;;;15.50;8.52;;;12.20;99.90;;;;;;4910266;29;20035;-87
2022/10/03 08:20:55;;;;;;;12.77;8.63;;;12.20;99.90;;;;;;4910070;29;20040;-87
2022/10/03 08:23:23;;;;;;;10.52;9.02;;;12.30;99.90;;;;;;4927059;29;20079;-88
2022/10/03 08:26:16;;;;;;;15.35;7.88;;;12.30;99.90;;;;;;4928089;29;20035;-87
2022/10/03 08:28:51;;;;;;;20.98;9.73;;;12.40;99.90;;;;;;4929075;29;20037;-88
2022/10/03 08:31:29;;;;;;;11.57;8.02;;;12.40;99.90;;;;;;4929399;29;20040;-87
2022/10/03 08:34:32;;;;;;;17.42;9.55;;;12.40;99.90;;;;;;4928030;29;20068;-87
2022/10/03 08:37:42;;;;;;;7.75;6.40;;;12.50;99.90;;;;;;4928913;29;20036;-88
2022/10/03 08:40:52;;;;;;;7.53;6.43;;;12.50;99.90;;;;;;4925997;29;20036;-87
2022/10/03 08:43:30;;;;;;;8.60;7.28;;;12.60;99.90;;;;;;4927478;29;20091;-87
2022/10/03 08:46:01;;;;;;;7.15;5.00;;;12.70;99.90;;;;;;4929683;29;20044;-87
2022/10/03 08:49:05;;;;;;;9.40;7.40;;;12.70;99.90;;;;;;4932359;29;20052;-87
2022/10/03 08:52:00;;;;;;;7.43;6.30;;;12.80;99.90;;;;;;4932539;29;20039;-87
2022/10/03 08:54:51;;;;;;;11.95;6.53;;;12.90;99.90;;;;;;4932484;29;20036;-88
2022/10/03 08:58:07;;;;;;;8.20;5.65;;;13.00;99.90;;;;;;4930922;29;20043;-88
2022/10/03 09:00:43;;;;;;;7.10;6.40;;;13.00;99.90;;;;;;4860759;29;20038;-88
2022/10/03 09:03:15;;;;;;;8.05;5.35;;;13.00;99.90;;;;;;4855318;29;20113;-87
2022/10/03 09:05:53;;;;;;;15.50;8.05;;;13.00;99.90;;;;;;4880025;29;20057;-87
2022/10/03 09:08:59;;;;;;;13.95;6.22;;;13.10;99.90;;;;;;4913191;29;20088;-87
2022/10/03 09:11:46;;;;;;;7.82;6.20;;;13.20;99.90;;;;;;4911979;29;20033;-87
2022/10/03 09:14:37;;;;;;;6.13;4.53;;;13.30;99.90;;;;;;4916028;29;20036;-88
2022/10/03 09:17:09;;;;;;;11.02;5.50;;;13.30;99.90;;;;;;4931905;29;20047;-88
2022/10/03 09:19:35;;;;;;;8.68;5.68;;;13.50;99.90;;;;;;4930737;29;20066;-88
2022/10/03 09:22:19;;;;;;;6.88;4.60;;;13.40;99.90;;;;;;4931362;29;20103;-87
2022/10/03 09:25:04;;;;;;;5.78;5.03;;;13.50;99.90;;;;;;4930541;29;20111;-88
2022/10/03 09:27:54;;;;;;;15.60;5.30;;;13.50;99.90;;;;;;4914828;29;20032;-88
2022/10/03 09:30:46;;;;;;;6.25;4.75;;;13.60;99.90;;;;;;4914425;29;20056;-88
2022/10/03 09:33:28;;;;;;;10.38;6.63;;;13.60;99.90;;;;;;4906122;29;20044;-88
2022/10/03 09:36:17;;;;;;;17.77;6.88;;;13.70;99.90;;;;;;4911626;29;20162;-87
2022/10/03 09:38:49;;;;;;;6.78;4.00;;;13.70;99.90;;;;;;4895850;29;20470;-88
2022/10/03 09:41:49;;;;;;;8.85;4.85;;;13.70;99.90;;;;;;4927130;29;20047;-87
2022/10/03 09:44:34;;;;;;;;;;;13.80;99.90;;;;;;4912890;29;20077;-88
2022/10/03 09:47:37;;;;;;;4.38;3.65;;;13.80;99.90;;;;;;4925288;29;19918;-87
2022/10/03 09:50:24;;;;;;;14.88;4.97;;;13.80;99.90;;;;;;4931288;29;20028;-88
2022/10/03 09:53:01;;;;;;;7.93;4.28;;;13.90;99.90;;;;;;4930344;29;20087;-87
2022/10/03 09:56:03;;;;;;;6.72;5.40;;;13.90;99.90;;;;;;4930086;29;20100;-88
2022/10/03 09:59:06;;;;;;;6.30;4.82;;;13.90;99.90;;;;;;4930203;29;20039;-88
2022/10/03 10:01:51;;;;;;;4.72;3.80;;;13.90;99.90;;;;;;4929443;29;20068;-88
2022/10/03 10:04:49;;;;;;;7.18;4.38;;;13.90;99.90;;;;;;4930738;29;20033;-88
2022/10/03 10:07:35;;;;;;;6.38;4.47;;;13.90;99.90;;;;;;4930788;29;20035;-89
2022/10/03 10:10:15;;;;;;;13.80;4.55;;;13.90;99.90;;;;;;4929775;29;20033;-88
2022/10/03 10:13:23;;;;;;;3.92;2.58;;;13.90;99.90;;;;;;4929713;29;20043;-89
2022/10/03 10:15:57;;;;;;;4.13;2.50;;;14.00;99.90;;;;;;4903255;29;20047;-88
2022/10/03 10:18:42;;;;;;;5.53;3.13;;;14.00;99.90;;;;;;4930361;29;20039;-88
2022/10/03 10:21:32;;;;;;;5.60;3.60;;;14.00;99.90;;;;;;4913341;29;20494;-87
2022/10/03 10:24:18;;;;;;;3.83;2.63;;;14.00;99.90;;;;;;4930764;29;20505;-88
2022/10/03 10:27:18;;;;;;;5.97;3.03;;;14.00;99.90;;;;;;4926819;29;20044;-88
2022/10/03 10:30:09;;;;;;;3.58;2.28;;;14.00;99.90;;;;;;4929661;29;20394;-88
2022/10/03 10:33:03;;;;;;;9.07;2.33;;;14.00;99.90;;;;;;4930597;29;20109;-87
2022/10/03 10:35:54;;;;;;;3.63;2.53;;;14.10;99.90;;;;;;4928753;29;20032;-87
2022/10/03 10:38:19;;;;;;;4.22;1.75;;;14.10;99.90;;;;;;4929242;29;20043;-88
2022/10/03 10:41:20;;;;;;;6.75;3.03;;;14.10;99.90;;;;;;4913473;29;20028;-88
2022/10/03 10:43:55;;;;;;;5.55;2.78;;;14.20;99.90;;;;;;4930358;29;20032;-88
2022/10/03 10:46:30;;;;;;;6.20;1.75;;;14.30;99.90;;;;;;4913351;29;20036;-87
2022/10/03 10:48:56;;;;;;;8.68;2.63;;;14.30;99.90;;;;;;4929190;29;20036;-89
2022/10/03 10:51:49;;;;;;;3.45;1.88;;;14.30;99.90;;;;;;4929632;29;20042;-88
2022/10/03 10:55:02;;;;;;;5.78;2.80;;;14.30;99.90;;;;;;4929040;29;20032;-87
2022/10/03 10:57:39;;;;;;;1.80;1.70;;;14.40;99.90;;;;;;4930144;29;20044;-89
2022/10/03 11:00:14;;;;;;;6.00;2.53;;;14.40;99.90;;;;;;4930163;29;20038;-88
2022/10/03 11:02:55;;;;;;;10.93;3.30;;;14.40;99.90;;;;;;4929065;29;20032;-89
2022/10/03 11:05:41;;;;;;;3.85;2.17;;;14.50;99.90;;;;;;4913147;29;20047;-89
2022/10/03 11:08:38;;;;;;;3.25;1.67;;;14.50;99.90;;;;;;4928135;29;20032;-90
2022/10/03 11:12:12;;;;;;;5.97;2.25;;;14.60;99.90;;;;;;4911983;29;20036;-90
2022/10/03 11:15:13;;;;;;;2.13;1.30;;;14.60;99.90;;;;;;4835464;29;20056;-89
2022/10/03 11:18:02;;;;;;;1.80;1.38;;;14.70;99.90;;;;;;4879989;29;20044;-89
2022/10/03 11:21:03;;;;;;;4.15;1.65;;;14.70;99.90;;;;;;4911134;29;20105;-88
2022/10/03 11:23:38;;;;;;;8.48;1.77;;;14.70;99.90;;;;;;4910598;29;20036;-89
2022/10/03 11:26:22;;;;;;;1.40;1.08;;;14.60;99.90;;;;;;4910887;29;20032;-89
2022/10/03 11:29:15;;;;;;;4.32;1.50;;;14.70;99.90;;;;;;4922393;29;20032;-92
2022/10/03 11:32:07;;;;;;;6.18;1.13;;;14.70;99.90;;;;;;4912919;29;20112;-91
2022/10/03 11:35:19;;;;;;;3.03;1.40;;;14.70;99.90;;;;;;4925547;29;20036;-90
2022/10/03 11:37:56;;;;;;;3.08;1.63;;;14.70;99.90;;;;;;4894008;29;20037;-91
2022/10/03 11:40:39;;;;;;;1.60;1.42;;;14.70;99.90;;;;;;4894064;29;20037;-91
2022/10/03 11:43:23;;;;;;;3.17;1.95;;;14.70;99.90;;;;;;4909751;29;20052;-91
2022/10/03 11:45:55;;;;;;;3.05;1.42;;;14.70;99.90;;;;;;4894444;29;20040;-91
2022/10/03 11:48:30;;;;;;;5.03;2.13;;;14.70;99.90;;;;;;4899631;29;20028;-91
2022/10/03 11:51:28;;;;;;;4.65;1.10;;;14.70;99.90;;;;;;4929666;29;20032;-90
2022/10/03 11:54:26;;;;;;;2.53;1.08;;;14.70;99.90;;;;;;4929042;29;20032;-91
2022/10/03 11:57:08;;;;;;;4.18;1.90;;;14.80;99.90;;;;;;4930272;29;20032;-91
2022/10/03 11:59:59;;;;;;;1.35;1.25;;;14.90;99.90;;;;;;4930032;29;20084;-91
2022/10/03 12:02:43;;;;;;;2.38;1.33;;;14.90;99.90;;;;;;4929540;29;20036;-92
2022/10/03 12:05:33;;;;;;;2.13;1.30;;;15.00;99.90;;;;;;4939037;29;20032;-93
2022/10/03 12:11:20;;;;;;;6.55;2.03;;;15.10;99.90;;;;;;4944530;29;19911;-91
2022/10/03 12:14:07;;;;;;;6.35;2.28;;;15.10;99.90;;;;;;4912674;29;20044;-91
2022/10/03 12:16:58;;;;;;;4.53;2.65;;;15.10;99.90;;;;;;4912605;29;20040;-92
2022/10/03 12:19:33;;;;;;;3.03;1.30;;;15.40;99.90;;;;;;4913818;29;20036;-91
2022/10/03 12:22:17;;;;;;;1.52;0.80;;;15.30;99.90;;;;;;4917182;29;20056;-90
2022/10/03 12:24:45;;;;;;;3.85;1.38;;;15.40;99.90;;;;;;4933256;29;20036;-90
2022/10/03 12:27:45;;;;;;;4.93;1.23;;;15.50;99.90;;;;;;4916090;29;20031;-92
2022/10/03 12:30:16;;;;;;;2.63;0.63;;;15.60;99.90;;;;;;4932179;29;20079;-92
2022/10/03 12:32:58;;;;;;;0.93;0.75;;;15.70;99.90;;;;;;4917007;29;20048;-91
2022/10/03 12:35:40;;;;;;;4.43;1.50;;;15.70;99.90;;;;;;4916328;29;20441;-91
2022/10/03 12:38:25;;;;;;;2.63;1.33;;;15.50;99.90;;;;;;4932265;29;20043;-90
2022/10/03 12:41:08;;;;;;;3.30;1.38;;;15.40;99.90;;;;;;4933582;29;20039;-90
2022/10/03 12:43:37;;;;;;;6.85;1.38;;;15.40;99.90;;;;;;4931830;29;20032;-90
2022/10/03 12:46:14;;;;;;;4.97;1.50;;;15.40;99.90;;;;;;4915920;29;20032;-91
2022/10/03 12:48:55;;;;;;;3.78;1.38;;;15.40;99.90;;;;;;4931543;29;20032;-91
2022/10/03 12:51:51;;;;;;;6.82;1.65;;;15.40;99.90;;;;;;4915994;29;20070;-92
2022/10/03 12:54:45;;;;;;;5.35;1.67;;;15.40;99.90;;;;;;4931481;29;20046;-90
2022/10/03 12:57:49;;;;;;;1.48;1.38;;;15.40;99.90;;;;;;4915435;29;20028;-91
2022/10/03 13:00:23;;;;;;;5.10;1.30;;;15.40;99.90;;;;;;4931159;29;20036;-89
2022/10/03 13:03:01;;;;;;;4.40;1.45;;;15.40;99.90;;;;;;4931196;29;20042;-90
2022/10/03 13:05:54;;;;;;;12.10;2.05;;;15.50;99.90;;;;;;4931432;29;20051;-91
2022/10/03 13:08:35;;;;;;;2.88;2.13;;;15.50;99.90;;;;;;4915550;29;20043;-91
2022/10/03 13:11:45;;;;;;;3.50;0.65;;;15.60;99.90;;;;;;4915636;29;20087;-90
2022/10/03 13:14:29;;;;;;;6.47;1.38;;;15.60;99.90;;;;;;4873880;29;20040;-91
2022/10/03 13:17:18;;;;;;;2.22;1.38;;;15.50;99.90;;;;;;4923338;29;20044;-91
2022/10/03 13:20:27;;;;;;;3.67;0.80;;;15.60;99.90;;;;;;4896349;29;20068;-91
2022/10/03 13:23:05;;;;;;;3.63;1.35;;;15.60;99.90;;;;;;4913187;29;20037;-91
2022/10/03 13:25:40;;;;;;;9.77;2.30;;;15.60;99.90;;;;;;4896431;29;20181;-91
2022/10/03 13:28:34;;;;;;;4.57;2.75;;;15.60;99.90;;;;;;4910998;29;20038;-91
2022/10/03 13:31:22;;;;;;;5.00;1.08;;;15.70;99.90;;;;;;4930423;29;20047;-91
2022/10/03 13:33:54;;;;;;;1.67;1.17;;;15.70;99.90;;;;;;4930872;29;20126;-91
2022/10/03 13:36:49;;;;;;;0.88;0.88;;;15.80;99.90;;;;;;4930689;29;20043;-91
2022/10/03 13:39:24;;;;;;;5.07;1.70;;;15.80;99.90;;;;;;4930863;29;20040;-91
2022/10/03 13:42:32;;;;;;;5.00;1.60;;;15.80;99.90;;;;;;4930469;29;20079;-92
2022/10/03 13:45:24;;;;;;;3.70;1.45;;;15.80;99.90;;;;;;4930428;29;20039;-91
2022/10/03 13:47:54;;;;;;;3.17;1.23;;;15.90;99.90;;;;;;4926309;29;20040;-91
2022/10/03 13:50:23;;;;;;;2.60;0.80;;;15.90;99.90;;;;;;4930761;29;20091;-91
2022/10/03 13:52:56;;;;;;;6.07;1.17;;;15.90;99.90;;;;;;4914666;29;20027;-90
2022/10/03 13:55:41;;;;;;;6.30;1.85;;;15.90;99.90;;;;;;4930272;29;20039;-91
2022/10/03 13:58:15;;;;;;;3.75;0.57;;;15.90;99.90;;;;;;4913767;29;20047;-91
2022/10/03 14:00:44;;;;;;;2.83;1.98;;;15.90;99.90;;;;;;4913958;29;20454;-91
2022/10/03 14:03:19;;;;;;;3.67;2.03;;;15.90;99.90;;;;;;4930480;29;20096;-92
2022/10/03 14:05:58;;;;;;;1.67;1.05;;;15.80;99.90;;;;;;4930272;29;20426;-91
2022/10/03 14:08:46;;;;;;;1.55;1.20;;;15.80;99.90;;;;;;4914601;29;20020;-92
2022/10/03 14:11:36;;;;;;;1.58;1.48;;;15.80;99.90;;;;;;4914278;29;20039;-91
2022/10/03 14:14:33;;;;;;;4.50;1.35;;;15.80;99.90;;;;;;4930110;29;20557;-90
2022/10/03 14:17:07;;;;;;;4.85;1.42;;;15.80;99.90;;;;;;4914132;29;20036;-91
2022/10/03 14:19:49;;;;;;;3.20;1.45;;;15.70;99.90;;;;;;4929878;29;20055;-90
2022/10/03 14:22:32;;;;;;;1.05;0.90;;;15.80;99.90;;;;;;4913655;29;20112;-90
2022/10/03 14:25:14;;;;;;;5.82;2.38;;;15.70;99.90;;;;;;4929763;29;20099;-90
2022/10/03 14:27:49;;;;;;;3.03;1.55;;;15.80;99.90;;;;;;4929988;29;20129;-90
2022/10/03 14:30:21;;;;;;;6.00;2.08;;;15.70;99.90;;;;;;4929406;29;20039;-90
2022/10/03 14:33:23;;;;;;;2.65;1.27;;;15.70;99.90;;;;;;4929446;29;20036;-91